createdAt,value
2022-07-29T00:00:12.981Z,6.10
2022-07-29T00:03:04.211Z,7.65
2022-07-29T00:05:33.974Z,4.78
2022-07-29T00:08:03.243Z,6.50
2022-07-29T00:10:32.573Z,5.87
2022-07-29T00:13:02.160Z,7.95
2022-07-29T00:15:31.495Z,6.70
2022-07-29T00:18:02.163Z,10.82
2022-07-29T00:20:31.699Z,9.98
2022-07-29T00:23:01.269Z,9.40
2022-07-29T00:25:30.493Z,5.97
2022-07-29T00:28:03.255Z,7.60
2022-07-29T00:30:32.596Z,7.53
2022-07-29T00:33:05.893Z,5.40
2022-07-29T00:35:46.358Z,10.38
2022-07-29T00:38:16.772Z,10.93
2022-07-29T00:40:47.202Z,10.10
2022-07-29T00:45:45.863Z,6.47
2022-07-29T00:48:16.742Z,7.35
2022-07-29T00:50:46.041Z,8.32
2022-07-29T00:53:15.402Z,9.73
2022-07-29T00:55:45.024Z,6.05
2022-07-29T00:58:16.053Z,7.93
2022-07-29T01:00:45.850Z,7.13
2022-07-29T01:03:16.515Z,9.45
2022-07-29T01:05:48.104Z,8.98
2022-07-29T01:08:21.151Z,11.25
2022-07-29T01:10:51.403Z,10.15
2022-07-29T01:13:21.466Z,7.03
2022-07-29T01:15:57.753Z,11.15
2022-07-29T01:18:34.324Z,6.65
2022-07-29T01:21:40.831Z,9.95
2022-07-29T01:24:43.121Z,8.40
2022-07-29T01:27:28.464Z,8.13
2022-07-29T01:30:05.263Z,10.43
2022-07-29T01:32:40.110Z,7.28
2022-07-29T01:35:18.139Z,6.28
2022-07-29T01:37:52.776Z,6.97
2022-07-29T01:40:28.345Z,6.35
2022-07-29T01:43:00.153Z,8.18
2022-07-29T01:45:39.415Z,6.28
2022-07-29T01:48:15.730Z,7.80
2022-07-29T01:50:50.970Z,6.82
2022-07-29T01:53:27.895Z,7.55
2022-07-29T01:56:08.603Z,8.07
2022-07-29T01:58:41.948Z,9.63
2022-07-29T02:01:14.838Z,8.73
2022-07-29T02:03:47.499Z,10.52
2022-07-29T02:06:21.262Z,8.70
2022-07-29T02:08:53.358Z,6.53
2022-07-29T02:11:22.871Z,6.20
2022-07-29T02:13:54.523Z,9.65
2022-07-29T02:16:28.906Z,7.63
2022-07-29T02:19:00.973Z,8.02
2022-07-29T02:21:31.731Z,8.10
2022-07-29T02:24:04.019Z,8.77
2022-07-29T02:26:35.841Z,8.55
2022-07-29T02:29:05.594Z,11.73
2022-07-29T02:31:38.288Z,7.85
2022-07-29T02:34:11.059Z,9.63
2022-07-29T02:36:41.769Z,7.95
2022-07-29T02:39:12.203Z,7.13
2022-07-29T02:44:16.885Z,8.05
2022-07-29T02:46:52.311Z,8.05
2022-07-29T02:49:31.742Z,8.90
2022-07-29T02:52:04.463Z,9.13
2022-07-29T02:54:41.286Z,7.68
2022-07-29T02:57:18.911Z,10.38
2022-07-29T02:59:50.029Z,6.72
2022-07-29T03:02:20.892Z,8.55
2022-07-29T03:04:52.972Z,6.88
2022-07-29T03:07:24.106Z,8.90
2022-07-29T03:09:54.785Z,8.05
2022-07-29T03:12:24.475Z,6.35
2022-07-29T03:14:54.605Z,8.95
2022-07-29T03:17:26.043Z,6.95
2022-07-29T03:19:55.980Z,6.13
2022-07-29T03:24:55.190Z,7.57
2022-07-29T03:27:24.544Z,7.20
2022-07-29T03:29:53.996Z,9.43
2022-07-29T03:32:25.310Z,8.23
2022-07-29T03:34:55.085Z,7.88
2022-07-29T03:37:24.310Z,10.23
2022-07-29T03:39:57.162Z,8.73
2022-07-29T03:42:34.040Z,11.48
2022-07-29T03:45:08.032Z,6.85
2022-07-29T03:47:50.594Z,10.00
2022-07-29T03:50:23.587Z,9.23
2022-07-29T03:52:53.120Z,10.88
2022-07-29T03:55:23.018Z,11.07
2022-07-29T03:57:52.817Z,12.38
2022-07-29T04:00:22.434Z,10.77
2022-07-29T04:02:53.185Z,8.38
2022-07-29T04:05:22.447Z,12.80
2022-07-29T04:07:51.926Z,9.63
2022-07-29T04:10:26.336Z,9.80
2022-07-29T04:13:01.734Z,13.77
2022-07-29T04:15:31.873Z,10.93
2022-07-29T04:18:02.821Z,12.90
2022-07-29T04:20:32.367Z,9.80
2022-07-29T04:23:01.573Z,8.70
2022-07-29T04:25:30.805Z,11.40
2022-07-29T04:28:03.096Z,8.65
2022-07-29T04:30:33.745Z,12.65
2022-07-29T04:33:06.397Z,9.90
2022-07-29T04:35:38.926Z,10.40
2022-07-29T04:38:20.126Z,10.75
2022-07-29T04:40:49.756Z,11.70
2022-07-29T04:43:22.543Z,12.48
2022-07-29T04:45:53.004Z,10.65
2022-07-29T04:48:28.533Z,11.52
2022-07-29T04:50:58.623Z,9.15
2022-07-29T04:53:27.881Z,10.52
2022-07-29T04:55:57.449Z,10.53
2022-07-29T04:58:27.388Z,10.07
2022-07-29T05:00:56.683Z,6.25
2022-07-29T05:03:27.314Z,4.33
2022-07-29T05:05:56.814Z,9.90
2022-07-29T05:08:26.069Z,6.90
2022-07-29T05:10:55.421Z,7.35
2022-07-29T05:13:24.919Z,5.97
2022-07-29T05:15:54.242Z,3.80
2022-07-29T05:18:26.016Z,6.72
2022-07-29T05:20:57.306Z,7.07
2022-07-29T05:23:26.570Z,4.70
2022-07-29T05:25:55.784Z,4.27
2022-07-29T05:28:25.249Z,5.18
2022-07-29T05:30:54.512Z,7.03
2022-07-29T05:33:34.849Z,2.17
2022-07-29T05:36:08.517Z,4.72
2022-07-29T05:38:38.354Z,2.75
2022-07-29T05:41:08.063Z,4.10
2022-07-29T05:43:37.312Z,3.10
2022-07-29T05:46:06.629Z,4.13
2022-07-29T05:48:36.282Z,2.13
2022-07-29T05:51:07.191Z,1.77
2022-07-29T05:53:36.654Z,3.50
2022-07-29T05:56:07.552Z,2.57
2022-07-29T05:58:37.238Z,3.08
2022-07-29T06:01:06.835Z,5.70
2022-07-29T06:03:38.712Z,3.00
2022-07-29T06:06:09.805Z,2.75
2022-07-29T06:08:39.506Z,2.08
2022-07-29T06:11:09.598Z,3.35
2022-07-29T06:13:38.935Z,5.47
2022-07-29T06:16:08.322Z,6.70
2022-07-29T06:18:37.868Z,2.00
2022-07-29T06:21:11.886Z,0.80
2022-07-29T06:23:41.553Z,0.60
2022-07-29T06:26:10.934Z,3.33
2022-07-29T06:28:40.309Z,9.25
2022-07-29T06:31:10.380Z,2.25
2022-07-29T06:33:40.261Z,2.35
2022-07-29T06:36:11.451Z,5.65
2022-07-29T06:38:49.187Z,0.82
2022-07-29T06:41:20.812Z,3.60
2022-07-29T06:43:54.575Z,1.77
2022-07-29T06:46:26.275Z,1.70
2022-07-29T06:48:55.871Z,2.75
2022-07-29T06:51:26.675Z,3.25
2022-07-29T06:53:59.979Z,2.65
2022-07-29T06:56:39.004Z,1.27
2022-07-29T06:59:10.580Z,1.33
2022-07-29T07:01:41.286Z,1.15
2022-07-29T07:04:11.530Z,2.53
2022-07-29T07:06:42.973Z,1.17
2022-07-29T07:09:12.361Z,0.95
2022-07-29T07:11:41.729Z,0.93
2022-07-29T07:14:11.763Z,1.25
2022-07-29T07:16:41.106Z,2.67
2022-07-29T07:19:10.522Z,2.10
2022-07-29T07:21:41.520Z,1.23
2022-07-29T07:24:10.901Z,0.57
2022-07-29T07:26:41.067Z,1.85
2022-07-29T07:29:10.404Z,0.82
2022-07-29T07:31:40.148Z,0.73
2022-07-29T07:34:10.298Z,2.00
2022-07-29T07:36:39.609Z,1.33
2022-07-29T07:39:10.367Z,0.75
2022-07-29T07:41:39.940Z,1.42
2022-07-29T07:44:11.827Z,2.40
2022-07-29T07:46:45.904Z,3.08
2022-07-29T07:51:44.255Z,1.17
2022-07-29T07:54:21.855Z,1.27
2022-07-29T07:56:53.137Z,1.02
2022-07-29T07:59:23.112Z,1.10
2022-07-29T08:01:56.135Z,3.90
2022-07-29T08:04:28.719Z,2.53
2022-07-29T08:06:59.443Z,2.20
2022-07-29T08:09:31.502Z,1.30
2022-07-29T08:12:03.287Z,2.28
2022-07-29T08:14:33.534Z,0.60
2022-07-29T08:19:31.957Z,1.05
2022-07-29T08:22:01.459Z,1.48
2022-07-29T08:24:53.429Z,3.95
2022-07-29T08:27:43.038Z,2.03
2022-07-29T08:30:13.810Z,0.70
2022-07-29T08:35:24.761Z,0.85
2022-07-29T08:37:54.288Z,1.65
2022-07-29T08:40:30.577Z,2.33
2022-07-29T08:43:07.210Z,3.33
2022-07-29T08:45:47.592Z,1.25
2022-07-29T08:48:20.057Z,0.80
2022-07-29T08:50:50.768Z,1.00
2022-07-29T08:53:20.919Z,1.70
2022-07-29T08:55:52.329Z,0.90
2022-07-29T08:58:24.746Z,0.50
2022-07-29T09:00:58.168Z,1.55
2022-07-29T09:03:32.520Z,8.75
2022-07-29T09:06:02.707Z,1.80
2022-07-29T09:08:34.382Z,2.55
2022-07-29T09:11:05.872Z,1.05
2022-07-29T09:13:35.525Z,1.85
2022-07-29T09:16:09.553Z,1.90
2022-07-29T09:18:41.254Z,7.50
2022-07-29T09:21:38.947Z,2.08
2022-07-29T09:24:10.569Z,1.10
2022-07-29T09:26:44.679Z,1.95
2022-07-29T09:29:16.580Z,0.75
2022-07-29T09:31:48.331Z,1.23
2022-07-29T09:34:23.589Z,1.55
2022-07-29T09:36:55.205Z,1.90
2022-07-29T09:39:37.560Z,0.60
2022-07-29T09:42:21.906Z,2.45
2022-07-29T09:46:01.002Z,1.83
2022-07-29T09:52:58.568Z,1.38
2022-07-29T09:56:09.695Z,1.73
2022-07-29T09:59:19.788Z,3.05
2022-07-29T10:01:51.046Z,2.53
2022-07-29T10:04:23.292Z,1.95
2022-07-29T10:07:04.324Z,4.13
2022-07-29T10:09:39.147Z,3.10
2022-07-29T10:12:23.926Z,1.77
2022-07-29T10:16:07.562Z,0.88
2022-07-29T10:18:59.068Z,2.92
2022-07-29T10:21:36.716Z,4.53
2022-07-29T10:24:15.073Z,2.20
2022-07-29T10:27:08.259Z,3.40
2022-07-29T10:29:38.940Z,0.73
2022-07-29T10:32:30.089Z,1.70
2022-07-29T10:35:21.823Z,2.38
2022-07-29T10:38:20.930Z,5.25
2022-07-29T10:41:22.217Z,1.35
2022-07-29T10:43:53.388Z,0.30
2022-07-29T10:46:25.596Z,0.73
2022-07-29T10:49:15.219Z,1.00
2022-07-29T10:51:59.120Z,0.82
2022-07-29T10:55:01.423Z,2.42
2022-07-29T11:00:40.674Z,3.70
2022-07-29T11:03:53.684Z,2.58
2022-07-29T11:06:30.746Z,1.40
2022-07-29T11:09:34.743Z,1.48
2022-07-29T11:12:05.211Z,1.88
2022-07-29T11:14:58.558Z,0.75
2022-07-29T11:17:28.135Z,4.07
2022-07-29T11:20:45.853Z,2.67
2022-07-29T11:23:27.540Z,2.25
2022-07-29T11:26:25.578Z,1.95
2022-07-29T11:29:01.817Z,7.47
2022-07-29T11:31:39.939Z,0.40
2022-07-29T11:34:28.134Z,0.30
2022-07-29T11:37:28.349Z,1.10
2022-07-29T11:40:21.437Z,0.50
2022-07-29T11:42:53.911Z,1.92
2022-07-29T11:45:43.402Z,1.90
2022-07-29T11:51:13.299Z,4.40
2022-07-29T11:53:48.997Z,3.55
2022-07-29T11:56:25.849Z,1.83
2022-07-29T11:59:08.399Z,0.50
2022-07-29T12:01:38.229Z,2.72
2022-07-29T12:04:08.138Z,1.08
2022-07-29T12:06:37.631Z,0.77
2022-07-29T12:09:22.188Z,1.83
2022-07-29T12:12:03.155Z,0.80
2022-07-29T12:14:36.428Z,3.03
2022-07-29T12:17:06.340Z,1.95
2022-07-29T12:19:46.170Z,3.47
2022-07-29T12:22:40.194Z,0.57
2022-07-29T12:28:03.564Z,2.00
2022-07-29T12:30:43.319Z,6.10
2022-07-29T12:33:16.819Z,0.88
2022-07-29T12:36:03.557Z,0.40
2022-07-29T12:38:36.939Z,3.28
2022-07-29T12:41:06.503Z,1.10
2022-07-29T12:43:36.557Z,0.40
2022-07-29T12:46:17.407Z,1.85
2022-07-29T12:48:48.085Z,2.15
2022-07-29T12:51:23.306Z,4.07
2022-07-29T12:54:07.213Z,1.08
2022-07-29T12:56:45.151Z,3.13
2022-07-29T12:59:17.307Z,2.78
2022-07-29T13:01:50.227Z,0.30
2022-07-29T13:04:30.258Z,0.47
2022-07-29T13:07:06.474Z,5.22
2022-07-29T13:09:41.488Z,2.88
2022-07-29T13:12:12.007Z,0.90
2022-07-29T13:14:43.282Z,0.98
2022-07-29T13:17:16.745Z,0.70
2022-07-29T13:19:52.912Z,4.20
2022-07-29T13:22:26.138Z,1.00
2022-07-29T13:24:57.695Z,3.90
2022-07-29T13:27:48.937Z,0.95
2022-07-29T13:30:19.768Z,3.70
2022-07-29T13:32:50.831Z,0.40
2022-07-29T13:35:21.163Z,1.75
2022-07-29T13:37:51.859Z,0.60
2022-07-29T13:40:22.154Z,1.90
2022-07-29T13:42:51.639Z,2.10
2022-07-29T13:45:21.040Z,1.15
2022-07-29T13:47:51.994Z,5.40
2022-07-29T13:50:47.202Z,3.00
2022-07-29T13:53:39.353Z,2.70
2022-07-29T13:56:09.354Z,6.65
2022-07-29T13:58:38.900Z,2.88
2022-07-29T14:01:15.555Z,4.88
2022-07-29T14:03:48.228Z,3.03
2022-07-29T14:06:17.476Z,4.50
2022-07-29T14:08:51.457Z,2.03
2022-07-29T14:11:21.636Z,3.17
2022-07-29T14:13:51.403Z,2.30
2022-07-29T14:16:20.736Z,2.65
2022-07-29T14:18:51.515Z,2.97
2022-07-29T14:21:21.074Z,0.85
2022-07-29T14:23:55.560Z,1.27
2022-07-29T14:26:25.886Z,1.35
2022-07-29T14:28:56.737Z,0.90
2022-07-29T14:31:26.143Z,3.80
2022-07-29T14:34:01.157Z,4.25
2022-07-29T14:36:32.141Z,1.95
2022-07-29T14:39:01.730Z,7.15
2022-07-29T14:41:30.965Z,0.45
2022-07-29T14:44:01.573Z,4.53
2022-07-29T14:46:31.399Z,1.00
2022-07-29T14:49:02.270Z,3.13
2022-07-29T14:51:32.532Z,2.72
2022-07-29T14:54:02.092Z,0.45
2022-07-29T14:56:37.086Z,3.97
2022-07-29T14:59:07.205Z,1.77
2022-07-29T15:01:37.062Z,3.80
2022-07-29T15:06:37.435Z,0.85
2022-07-29T15:09:06.733Z,2.38
2022-07-29T15:11:38.255Z,3.75
2022-07-29T15:14:08.370Z,1.00
2022-07-29T15:16:39.283Z,1.02
2022-07-29T15:19:14.166Z,1.90
2022-07-29T15:21:48.239Z,0.90
2022-07-29T15:24:18.931Z,2.20
2022-07-29T15:26:49.182Z,0.60
2022-07-29T15:29:18.763Z,3.42
2022-07-29T15:31:48.371Z,2.40
2022-07-29T15:34:21.263Z,2.88
2022-07-29T15:36:52.823Z,1.00
2022-07-29T15:39:23.436Z,1.70
2022-07-29T15:41:53.219Z,8.10
2022-07-29T15:44:22.772Z,5.70
2022-07-29T15:47:07.409Z,4.47
2022-07-29T15:49:48.245Z,8.65
2022-07-29T15:52:25.023Z,1.10
2022-07-29T15:54:57.036Z,1.75
2022-07-29T15:57:26.901Z,1.30
2022-07-29T15:59:56.363Z,0.75
2022-07-29T16:02:25.621Z,1.77
2022-07-29T16:04:56.292Z,0.70
2022-07-29T16:07:25.826Z,1.42
2022-07-29T16:10:01.204Z,2.53
2022-07-29T16:12:30.705Z,4.93
2022-07-29T16:14:59.998Z,2.03
2022-07-29T16:17:29.262Z,2.22
2022-07-29T16:20:00.184Z,2.67
2022-07-29T16:22:29.432Z,2.22
2022-07-29T16:24:58.727Z,0.90
2022-07-29T16:27:35.369Z,1.35
2022-07-29T16:30:09.738Z,0.90
2022-07-29T16:32:39.853Z,2.25
2022-07-29T16:35:11.133Z,1.25
2022-07-29T16:37:40.607Z,0.73
2022-07-29T16:40:11.547Z,1.25
2022-07-29T16:42:46.937Z,3.10
2022-07-29T16:45:17.977Z,5.88
2022-07-29T16:47:47.691Z,1.15
2022-07-29T16:50:18.313Z,2.10
2022-07-29T16:52:47.722Z,0.50
2022-07-29T16:55:17.182Z,2.45
2022-07-29T16:57:47.034Z,2.03
2022-07-29T17:00:17.797Z,5.93
2022-07-29T17:02:47.699Z,2.05
2022-07-29T17:05:18.837Z,0.85
2022-07-29T17:07:48.575Z,1.35
2022-07-29T17:10:17.854Z,0.50
2022-07-29T17:12:47.085Z,2.60
2022-07-29T17:15:18.529Z,1.45
2022-07-29T17:17:55.272Z,0.90
2022-07-29T17:20:27.914Z,3.72
2022-07-29T17:22:57.571Z,4.25
2022-07-29T17:25:26.898Z,4.82
2022-07-29T17:28:00.705Z,1.30
2022-07-29T17:30:30.695Z,2.15
2022-07-29T17:33:00.194Z,3.20
2022-07-29T17:35:48.395Z,1.17
2022-07-29T17:38:17.863Z,1.40
2022-07-29T17:40:47.161Z,3.38
2022-07-29T17:43:16.412Z,0.88
2022-07-29T17:45:50.165Z,3.60
2022-07-29T17:48:20.771Z,1.65
2022-07-29T17:50:52.060Z,3.83
2022-07-29T17:53:21.298Z,3.67
2022-07-29T17:55:50.622Z,2.97
2022-07-29T17:58:20.230Z,6.38
2022-07-29T18:00:49.632Z,0.93
2022-07-29T18:03:19.254Z,1.45
2022-07-29T18:05:50.598Z,1.40
2022-07-29T18:08:20.214Z,1.00
2022-07-29T18:10:49.743Z,0.90
2022-07-29T18:13:19.274Z,4.40
2022-07-29T18:15:48.684Z,5.50
2022-07-29T18:18:18.969Z,1.27
2022-07-29T18:23:19.009Z,3.83
2022-07-29T18:25:48.476Z,3.25
2022-07-29T18:28:17.871Z,2.05
2022-07-29T18:33:21.850Z,2.20
2022-07-29T18:36:10.520Z,4.25
2022-07-29T18:38:43.081Z,2.00
2022-07-29T18:41:12.293Z,2.10
2022-07-29T18:43:41.908Z,2.85
2022-07-29T18:46:11.263Z,7.07
2022-07-29T18:48:42.372Z,1.40
2022-07-29T18:51:11.701Z,1.90
2022-07-29T18:53:42.368Z,1.60
2022-07-29T18:56:11.965Z,3.25
2022-07-29T18:58:41.344Z,2.88
2022-07-29T19:01:14.731Z,2.30
2022-07-29T19:03:46.254Z,3.70
2022-07-29T19:06:15.706Z,5.43
2022-07-29T19:08:46.342Z,2.47
2022-07-29T19:11:15.849Z,4.22
2022-07-29T19:13:45.093Z,1.50
2022-07-29T19:16:14.669Z,3.58
2022-07-29T19:18:44.704Z,3.22
2022-07-29T19:21:14.102Z,3.10
2022-07-29T19:24:05.872Z,2.67
2022-07-29T19:26:36.684Z,2.35
2022-07-29T19:29:06.403Z,2.20
2022-07-29T19:31:36.066Z,2.78
2022-07-29T19:34:05.363Z,2.03
2022-07-29T19:36:35.282Z,2.38
2022-07-29T19:39:06.644Z,3.53
2022-07-29T19:41:36.193Z,6.28
2022-07-29T19:44:05.975Z,6.07
2022-07-29T19:46:35.336Z,3.13
2022-07-29T19:49:06.527Z,2.38
2022-07-29T19:51:37.260Z,2.72
2022-07-29T19:54:08.573Z,2.63
2022-07-29T19:56:40.762Z,2.00
2022-07-29T19:59:11.807Z,2.83
2022-07-29T20:01:42.265Z,3.45
2022-07-29T20:04:11.553Z,2.55
2022-07-29T20:06:41.120Z,5.40
2022-07-29T20:09:16.967Z,3.38
2022-07-29T20:11:50.226Z,3.38
2022-07-29T20:14:19.517Z,2.53
2022-07-29T20:16:48.902Z,9.60
2022-07-29T20:19:18.448Z,7.57
2022-07-29T20:21:47.688Z,2.78
2022-07-29T20:24:18.381Z,3.80
2022-07-29T20:26:48.165Z,2.20
2022-07-29T20:29:17.551Z,4.22
2022-07-29T20:31:53.534Z,3.03
2022-07-29T20:34:26.628Z,3.25
2022-07-29T20:36:55.881Z,2.70
2022-07-29T20:39:26.897Z,1.95
2022-07-29T20:41:56.594Z,2.80
2022-07-29T20:44:25.959Z,2.28
2022-07-29T20:46:55.456Z,4.40
2022-07-29T20:49:24.937Z,1.83
2022-07-29T20:51:54.269Z,3.85
2022-07-29T20:54:23.541Z,3.47
2022-07-29T20:56:54.533Z,2.42
2022-07-29T20:59:32.900Z,4.18
2022-07-29T21:02:15.572Z,2.38
2022-07-29T21:05:16.042Z,5.80
2022-07-29T21:07:55.423Z,3.85
2022-07-29T21:10:39.245Z,3.72
2022-07-29T21:13:11.563Z,2.20
2022-07-29T21:15:55.509Z,3.33
2022-07-29T21:18:30.555Z,2.40
2022-07-29T21:21:02.927Z,2.50
2022-07-29T21:23:32.718Z,3.03
2022-07-29T21:26:02.192Z,2.90
2022-07-29T21:28:36.846Z,2.38
2022-07-29T21:31:10.776Z,2.45
2022-07-29T21:33:41.981Z,2.30
2022-07-29T21:36:46.456Z,2.45
2022-07-29T21:39:07.995Z,2.28
2022-07-29T21:41:40.652Z,3.47
2022-07-29T21:44:14.141Z,2.05
2022-07-29T21:46:43.737Z,2.63
2022-07-29T21:49:14.096Z,2.08
2022-07-29T21:51:43.536Z,3.65
2022-07-29T21:54:13.008Z,2.45
2022-07-29T21:56:43.363Z,3.15
2022-07-29T21:59:22.088Z,2.28
2022-07-29T22:01:52.064Z,4.15
2022-07-29T22:04:25.485Z,1.08
2022-07-29T22:06:54.931Z,2.50
2022-07-29T22:09:24.584Z,2.10
2022-07-29T22:11:53.843Z,2.55
2022-07-29T22:14:24.569Z,3.87
2022-07-29T22:16:58.064Z,4.80
2022-07-29T22:19:29.864Z,2.40
2022-07-29T22:21:59.891Z,2.70
2022-07-29T22:24:29.193Z,3.42
2022-07-29T22:26:58.756Z,1.92
2022-07-29T22:29:29.980Z,3.30
2022-07-29T22:31:59.282Z,1.80
2022-07-29T22:34:34.106Z,2.20
2022-07-29T22:37:07.530Z,5.40
2022-07-29T22:39:36.777Z,2.07
2022-07-29T22:42:06.331Z,2.97
2022-07-29T22:44:37.352Z,2.38
2022-07-29T22:47:06.913Z,4.03
2022-07-29T22:49:36.436Z,1.83
2022-07-29T22:52:06.536Z,3.67
2022-07-29T22:57:05.933Z,2.78
2022-07-29T22:59:37.640Z,2.83
2022-07-29T23:02:07.271Z,2.88
2022-07-29T23:04:36.533Z,4.28
2022-07-29T23:07:05.844Z,4.00
2022-07-29T23:09:35.356Z,3.03
2022-07-29T23:12:04.752Z,4.37
2022-07-29T23:14:34.026Z,4.93
2022-07-29T23:17:05.262Z,2.72
2022-07-29T23:19:34.896Z,3.55
2022-07-29T23:22:04.402Z,3.10
2022-07-29T23:24:33.690Z,2.97
2022-07-29T23:27:03.410Z,2.87
2022-07-29T23:32:08.308Z,3.45
2022-07-29T23:34:37.876Z,3.33
2022-07-29T23:37:07.496Z,2.95
2022-07-29T23:39:36.800Z,2.92
2022-07-29T23:42:06.496Z,2.50
2022-07-29T23:44:35.793Z,2.88
2022-07-29T23:47:06.598Z,4.07
2022-07-29T23:49:36.542Z,1.50
2022-07-29T23:52:06.340Z,2.72
2022-07-29T23:54:35.657Z,2.72
2022-07-29T23:57:05.266Z,5.18
2022-07-29T23:59:34.601Z,3.13
